Willernie, Minnesota
Current Conditions -  °F | °C
As of 10:31 AM on Friday 19 Dec 2014 (Local Time) from K21D Reporting Station
Overcast Overcast  
Wind Chill: 20°   Ceiling: 1700
Heat Index: 27°   Visibility: 10mi
Dew Point: 21°   Wind: 6mph
Humidity: 80%   Direction: 180°S
Pressure: 30.26"   Gusts: NA
Location:  45.05°N, 92.96°W
Report Text: K21D 191631Z AUTO 18005KT 10SM OVC017 M03/M06 A3026 RMK AO2
Loading
Personal Weather Stations






























Interactive Weather Map New forecast layout! Learn more

10-Day Weather Forecast

Advertisements
Track Severe Weather on mobile